createdAt,value
2022-07-30T00:02:13.466Z,1.20
2022-07-30T00:04:41.267Z,0.70
2022-07-30T00:07:09.292Z,1.13
2022-07-30T00:09:37.159Z,1.38
2022-07-30T00:12:05.437Z,0.93
2022-07-30T00:14:34.923Z,0.68
2022-07-30T00:17:05.495Z,1.10
2022-07-30T00:19:34.454Z,0.93
2022-07-30T00:22:03.409Z,0.85
2022-07-30T00:24:31.264Z,0.57
2022-07-30T00:26:59.321Z,0.95
2022-07-30T00:29:27.483Z,0.65
2022-07-30T00:31:55.188Z,1.13
2022-07-30T00:34:24.408Z,1.20
2022-07-30T00:36:52.507Z,1.30
2022-07-30T00:39:20.286Z,1.08
2022-07-30T00:41:57.534Z,1.30
2022-07-30T00:44:25.600Z,1.48
2022-07-30T00:46:54.062Z,0.73
2022-07-30T00:49:24.010Z,1.45
2022-07-30T00:51:52.818Z,1.20
2022-07-30T00:54:21.136Z,0.80
2022-07-30T00:56:49.547Z,0.80
2022-07-30T00:59:17.767Z,1.33
2022-07-30T01:01:45.676Z,1.00
2022-07-30T01:04:13.489Z,1.40
2022-07-30T01:06:42.617Z,1.05
2022-07-30T01:09:10.581Z,1.27
2022-07-30T01:11:40.705Z,1.27
2022-07-30T01:14:10.433Z,1.40
2022-07-30T01:16:42.643Z,1.40
2022-07-30T01:19:43.643Z,0.85
2022-07-30T01:22:30.473Z,1.25
2022-07-30T01:25:11.006Z,1.25
2022-07-30T01:27:46.708Z,1.45
2022-07-30T01:30:22.933Z,1.48
2022-07-30T01:32:55.263Z,1.42
2022-07-30T01:35:26.897Z,1.45
2022-07-30T01:37:57.435Z,1.05
2022-07-30T01:40:28.735Z,1.30
2022-07-30T01:43:01.573Z,0.77
2022-07-30T01:45:32.322Z,0.98
2022-07-30T01:48:12.070Z,1.13
2022-07-30T01:50:47.393Z,1.00
2022-07-30T01:53:18.670Z,1.27
2022-07-30T01:55:48.867Z,1.33
2022-07-30T01:58:23.862Z,1.48
2022-07-30T02:00:55.566Z,1.02
2022-07-30T02:03:23.645Z,1.67
2022-07-30T02:05:59.590Z,1.48
2022-07-30T02:08:38.854Z,1.50
2022-07-30T02:11:11.362Z,1.08
2022-07-30T02:13:48.376Z,1.30
2022-07-30T02:16:23.512Z,1.55
2022-07-30T02:19:04.263Z,1.30
2022-07-30T02:21:38.558Z,1.35
2022-07-30T02:24:13.722Z,1.20
2022-07-30T02:26:46.186Z,1.23
2022-07-30T02:29:18.675Z,1.27
2022-07-30T02:31:47.217Z,1.63
2022-07-30T02:34:17.377Z,1.38
2022-07-30T02:36:47.304Z,1.15
2022-07-30T02:39:17.505Z,1.42
2022-07-30T02:41:49.883Z,1.48
2022-07-30T02:44:22.725Z,1.33
2022-07-30T02:46:53.380Z,1.30
2022-07-30T02:49:24.256Z,1.15
2022-07-30T02:51:53.482Z,0.90
2022-07-30T02:54:24.674Z,1.10
2022-07-30T02:56:54.445Z,1.55
2022-07-30T02:59:26.321Z,1.23
2022-07-30T03:01:55.932Z,1.30
2022-07-30T03:04:25.119Z,1.17
2022-07-30T03:06:55.676Z,1.15
2022-07-30T03:09:24.007Z,1.23
2022-07-30T03:11:54.625Z,1.67
2022-07-30T03:14:23.851Z,1.13
2022-07-30T03:16:59.095Z,1.08
2022-07-30T03:19:32.200Z,1.48
2022-07-30T03:22:04.007Z,1.80
2022-07-30T03:24:33.844Z,1.08
2022-07-30T03:27:03.737Z,1.40
2022-07-30T03:29:35.688Z,1.20
2022-07-30T03:32:05.695Z,1.50
2022-07-30T03:34:35.711Z,1.20
2022-07-30T03:37:06.291Z,1.42
2022-07-30T03:39:36.179Z,1.33
2022-07-30T03:42:07.229Z,1.40
2022-07-30T03:44:37.218Z,1.60
2022-07-30T03:47:07.426Z,1.40
2022-07-30T03:49:35.478Z,1.52
2022-07-30T03:52:05.096Z,1.65
2022-07-30T03:54:34.572Z,1.38
2022-07-30T03:57:03.957Z,1.58
2022-07-30T03:59:32.331Z,1.20
2022-07-30T04:02:06.120Z,1.55
2022-07-30T04:04:35.391Z,1.90
2022-07-30T04:07:03.348Z,1.35
2022-07-30T04:09:31.322Z,2.28
2022-07-30T04:11:59.709Z,1.90
2022-07-30T04:14:27.536Z,1.60
2022-07-30T04:17:06.949Z,1.23
2022-07-30T04:19:42.944Z,1.55
2022-07-30T04:22:16.078Z,1.63
2022-07-30T04:24:46.067Z,1.25
2022-07-30T04:27:14.882Z,1.30
2022-07-30T04:29:42.981Z,1.45
2022-07-30T04:32:12.916Z,1.40
2022-07-30T04:34:48.057Z,1.45
2022-07-30T04:37:18.054Z,1.63
2022-07-30T04:39:46.441Z,1.23
2022-07-30T04:42:14.224Z,1.50
2022-07-30T04:44:42.640Z,1.15
2022-07-30T04:47:11.761Z,1.60
2022-07-30T04:49:42.593Z,1.58
2022-07-30T04:52:12.548Z,1.20
2022-07-30T04:54:45.702Z,1.65
2022-07-30T04:57:15.974Z,1.20
2022-07-30T04:59:43.847Z,1.30
2022-07-30T05:02:15.811Z,1.63
2022-07-30T05:04:45.533Z,1.50
2022-07-30T05:07:15.522Z,1.73
2022-07-30T05:09:43.701Z,1.50
2022-07-30T05:12:11.584Z,2.28
2022-07-30T05:14:39.345Z,2.47
2022-07-30T05:17:07.227Z,2.65
2022-07-30T05:19:36.424Z,2.13
2022-07-30T05:22:06.689Z,2.33
2022-07-30T05:24:34.664Z,2.15
2022-07-30T05:27:02.924Z,2.60
2022-07-30T05:29:30.871Z,2.40
2022-07-30T05:32:03.490Z,2.05
2022-07-30T05:34:31.493Z,1.88
2022-07-30T05:37:00.800Z,2.30
2022-07-30T05:39:28.764Z,2.10
2022-07-30T05:41:56.524Z,2.08
2022-07-30T05:44:24.408Z,2.10
2022-07-30T05:46:52.837Z,1.83
2022-07-30T05:49:20.968Z,2.05
2022-07-30T05:51:48.894Z,2.03
2022-07-30T05:54:19.796Z,1.73
2022-07-30T05:56:47.958Z,1.70
2022-07-30T05:59:15.762Z,1.95
2022-07-30T06:01:43.563Z,1.85
2022-07-30T06:04:11.439Z,1.90
2022-07-30T06:06:39.273Z,1.70
2022-07-30T06:09:07.036Z,1.67
2022-07-30T06:11:36.191Z,2.00
2022-07-30T06:14:04.032Z,2.38
2022-07-30T06:16:31.865Z,2.08
2022-07-30T06:18:59.594Z,2.00
2022-07-30T06:21:27.351Z,2.45
2022-07-30T06:23:55.141Z,1.63
2022-07-30T06:26:23.132Z,2.05
2022-07-30T06:28:52.270Z,2.28
2022-07-30T06:31:20.254Z,2.08
2022-07-30T06:33:48.128Z,2.25
2022-07-30T06:36:15.959Z,2.35
2022-07-30T06:38:43.711Z,1.98
2022-07-30T06:41:12.675Z,2.00
2022-07-30T06:43:40.432Z,1.73
2022-07-30T06:46:09.663Z,2.00
2022-07-30T06:48:38.293Z,1.83
2022-07-30T06:51:06.517Z,1.80
2022-07-30T06:53:38.729Z,1.83
2022-07-30T06:56:10.897Z,2.05
2022-07-30T06:58:39.133Z,2.00
2022-07-30T07:01:11.211Z,1.73
2022-07-30T07:03:41.087Z,1.90
2022-07-30T07:06:09.678Z,2.20
2022-07-30T07:08:38.455Z,1.98
2022-07-30T07:11:06.518Z,1.75
2022-07-30T07:13:34.302Z,1.67
2022-07-30T07:16:02.336Z,1.92
2022-07-30T07:18:30.374Z,1.67
2022-07-30T07:20:59.499Z,1.33
2022-07-30T07:23:39.725Z,1.48
2022-07-30T07:26:12.189Z,2.10
2022-07-30T07:28:41.175Z,1.80
2022-07-30T07:31:10.053Z,1.63
2022-07-30T07:33:39.311Z,2.05
2022-07-30T07:36:08.865Z,1.73
2022-07-30T07:38:36.810Z,2.00
2022-07-30T07:41:06.219Z,1.73
2022-07-30T07:43:34.080Z,2.03
2022-07-30T07:46:02.383Z,2.10
2022-07-30T07:48:30.199Z,1.83
2022-07-30T07:51:00.406Z,1.80
2022-07-30T07:53:29.962Z,1.75
2022-07-30T07:55:57.923Z,2.28
2022-07-30T07:58:26.497Z,1.50
2022-07-30T08:00:54.911Z,1.75
2022-07-30T08:03:22.760Z,1.63
2022-07-30T08:06:01.973Z,1.95
2022-07-30T08:08:37.010Z,1.40
2022-07-30T08:11:06.963Z,1.48
2022-07-30T08:13:48.338Z,1.65
2022-07-30T08:16:18.221Z,1.40
2022-07-30T08:18:46.009Z,1.73
2022-07-30T08:21:15.215Z,1.77
2022-07-30T08:23:44.405Z,1.38
2022-07-30T08:26:12.352Z,2.15
2022-07-30T08:28:40.197Z,1.70
2022-07-30T08:31:07.966Z,2.15
2022-07-30T08:33:35.817Z,1.55
2022-07-30T08:36:08.954Z,1.50
2022-07-30T08:38:37.188Z,1.43
2022-07-30T08:41:07.410Z,1.27
2022-07-30T08:43:37.635Z,1.50
2022-07-30T08:46:10.393Z,1.50
2022-07-30T08:48:38.420Z,2.00
2022-07-30T08:51:06.820Z,1.95
2022-07-30T08:53:35.369Z,1.40
2022-07-30T08:56:04.134Z,2.10
2022-07-30T08:58:36.108Z,1.90
2022-07-30T09:01:06.532Z,2.22
2022-07-30T09:03:35.515Z,1.63
2022-07-30T09:06:12.790Z,1.60
2022-07-30T09:08:40.689Z,1.52
2022-07-30T09:11:08.776Z,1.77
2022-07-30T09:13:42.206Z,1.80
2022-07-30T09:16:22.504Z,1.90
2022-07-30T09:18:51.665Z,1.58
2022-07-30T09:21:23.475Z,1.50
2022-07-30T09:24:00.502Z,2.17
2022-07-30T09:26:29.237Z,1.83
2022-07-30T09:29:17.490Z,1.75
2022-07-30T09:31:55.989Z,1.55
2022-07-30T09:34:30.185Z,2.45
2022-07-30T09:37:00.854Z,1.60
2022-07-30T09:39:34.148Z,1.60
2022-07-30T09:42:03.312Z,1.98
2022-07-30T09:44:32.866Z,1.80
2022-07-30T09:47:02.717Z,2.00
2022-07-30T09:49:31.423Z,2.10
2022-07-30T09:51:59.520Z,2.13
2022-07-30T09:54:51.598Z,1.90
2022-07-30T09:57:25.691Z,1.88
2022-07-30T09:59:56.751Z,1.83
2022-07-30T10:02:32.879Z,1.70
2022-07-30T10:05:13.931Z,1.90
2022-07-30T10:07:51.547Z,2.25
2022-07-30T10:10:25.621Z,1.83
2022-07-30T10:13:00.774Z,1.73
2022-07-30T10:15:33.564Z,2.05
2022-07-30T10:18:06.442Z,2.10
2022-07-30T10:20:35.435Z,1.40
2022-07-30T10:23:08.094Z,1.90
2022-07-30T10:25:54.769Z,1.73
2022-07-30T10:28:24.567Z,2.00
2022-07-30T10:30:56.842Z,1.85
2022-07-30T10:33:34.721Z,1.90
2022-07-30T10:36:05.924Z,2.10
2022-07-30T10:38:43.011Z,1.60
2022-07-30T10:41:42.532Z,1.58
2022-07-30T10:44:42.243Z,1.60
2022-07-30T10:47:16.575Z,1.70
2022-07-30T10:50:06.164Z,1.48
2022-07-30T10:52:51.368Z,2.00
2022-07-30T10:55:32.902Z,1.50
2022-07-30T10:58:08.517Z,1.90
2022-07-30T11:01:00.182Z,1.75
2022-07-30T11:03:41.357Z,1.85
2022-07-30T11:06:29.870Z,1.60
2022-07-30T11:08:58.112Z,1.80
2022-07-30T11:12:01.978Z,1.73
2022-07-30T11:14:58.627Z,1.85
2022-07-30T11:18:02.173Z,1.80
2022-07-30T11:23:13.956Z,1.38
2022-07-30T11:25:51.084Z,1.60
2022-07-30T11:28:38.699Z,1.77
2022-07-30T11:31:54.737Z,2.22
2022-07-30T11:34:28.163Z,2.08
2022-07-30T11:37:19.130Z,2.00
2022-07-30T11:40:13.631Z,1.95
2022-07-30T11:42:43.460Z,1.75
2022-07-30T11:45:32.020Z,2.00
2022-07-30T11:48:01.101Z,2.22
2022-07-30T11:50:32.746Z,2.38
2022-07-30T11:53:04.633Z,2.03
2022-07-30T11:55:34.879Z,1.65
2022-07-30T11:58:06.424Z,1.95
2022-07-30T12:00:40.633Z,1.83
2022-07-30T12:03:11.810Z,1.52
2022-07-30T12:05:40.684Z,1.88
2022-07-30T12:08:35.961Z,1.60
2022-07-30T12:11:00.898Z,1.85
2022-07-30T12:13:45.533Z,1.50
2022-07-30T12:16:17.185Z,1.70
2022-07-30T12:18:47.148Z,1.50
2022-07-30T12:21:16.663Z,1.42
2022-07-30T12:23:56.593Z,1.52
2022-07-30T12:26:27.589Z,1.42
2022-07-30T12:28:57.502Z,1.65
2022-07-30T12:31:25.536Z,1.98
2022-07-30T12:33:56.165Z,1.50
2022-07-30T12:36:30.643Z,1.13
2022-07-30T12:39:01.567Z,1.70
2022-07-30T12:41:43.789Z,1.55
2022-07-30T12:44:11.656Z,1.55
2022-07-30T12:46:42.076Z,1.58
2022-07-30T12:49:21.935Z,1.58
2022-07-30T12:51:57.608Z,1.30
2022-07-30T12:54:29.915Z,1.70
2022-07-30T12:57:01.202Z,1.27
2022-07-30T12:59:31.025Z,1.70
2022-07-30T13:02:00.926Z,1.42
2022-07-30T13:04:31.587Z,1.50
2022-07-30T13:07:08.182Z,1.80
2022-07-30T13:09:39.812Z,1.67
2022-07-30T13:12:12.574Z,1.42
2022-07-30T13:14:40.431Z,1.60
2022-07-30T13:17:09.623Z,1.65
2022-07-30T13:19:38.370Z,1.65
2022-07-30T13:22:06.196Z,1.60
2022-07-30T13:24:34.419Z,1.42
2022-07-30T13:27:03.796Z,1.60
2022-07-30T13:29:31.898Z,1.52
2022-07-30T13:31:59.647Z,1.27
2022-07-30T13:34:27.796Z,1.20
2022-07-30T13:36:55.556Z,1.55
2022-07-30T13:39:23.823Z,1.45
2022-07-30T13:41:51.790Z,1.80
2022-07-30T13:44:20.960Z,1.50
2022-07-30T13:46:48.718Z,1.52
2022-07-30T13:49:16.571Z,1.67
2022-07-30T13:51:44.427Z,1.52
2022-07-30T13:54:12.633Z,1.65
2022-07-30T13:56:41.971Z,1.88
2022-07-30T13:59:10.524Z,1.73
2022-07-30T14:01:39.849Z,1.40
2022-07-30T14:04:08.449Z,1.17
2022-07-30T14:06:36.357Z,1.60
2022-07-30T14:09:04.984Z,1.60
2022-07-30T14:11:33.069Z,1.50
2022-07-30T14:14:00.818Z,1.40
2022-07-30T14:16:44.690Z,1.30
2022-07-30T14:19:23.543Z,0.95
2022-07-30T14:21:53.968Z,1.20
2022-07-30T14:24:22.802Z,1.30
2022-07-30T14:26:55.861Z,1.02
2022-07-30T14:29:26.023Z,1.27
2022-07-30T14:31:53.796Z,1.63
2022-07-30T14:34:23.035Z,1.50
2022-07-30T14:36:50.993Z,1.08
2022-07-30T14:39:18.988Z,1.10
2022-07-30T14:41:46.799Z,1.50
2022-07-30T14:44:16.492Z,1.23
2022-07-30T14:46:51.562Z,1.27
2022-07-30T14:49:31.514Z,1.00
2022-07-30T14:51:59.293Z,1.60
2022-07-30T14:54:27.789Z,0.70
2022-07-30T14:56:58.455Z,0.98
2022-07-30T14:59:27.646Z,0.75
2022-07-30T15:01:56.131Z,0.95
2022-07-30T15:04:24.381Z,0.70
2022-07-30T15:06:53.673Z,0.65
2022-07-30T15:09:21.462Z,1.00
2022-07-30T15:12:24.139Z,0.82
2022-07-30T15:14:39.981Z,0.90
2022-07-30T15:17:08.209Z,0.80
2022-07-30T15:19:36.209Z,0.80
2022-07-30T15:22:06.462Z,0.80
2022-07-30T15:24:34.800Z,1.08
2022-07-30T15:27:02.601Z,1.00
2022-07-30T15:29:30.838Z,0.90
2022-07-30T15:32:01.003Z,0.60
2022-07-30T15:34:33.978Z,1.20
2022-07-30T15:37:02.477Z,0.85
2022-07-30T15:39:32.854Z,1.08
2022-07-30T15:42:01.987Z,0.90
2022-07-30T15:44:30.329Z,1.02
2022-07-30T15:46:58.665Z,0.85
2022-07-30T15:49:26.749Z,0.93
2022-07-30T15:51:54.726Z,0.50
2022-07-30T15:54:24.822Z,0.95
2022-07-30T15:57:00.951Z,0.85
2022-07-30T15:59:30.074Z,1.08
2022-07-30T16:01:58.148Z,1.20
2022-07-30T16:04:31.555Z,1.17
2022-07-30T16:07:01.900Z,1.50
2022-07-30T16:09:30.297Z,1.10
2022-07-30T16:12:00.136Z,1.13
2022-07-30T16:14:28.122Z,0.90
2022-07-30T16:16:56.505Z,1.20
2022-07-30T16:19:24.403Z,1.27
2022-07-30T16:21:52.502Z,1.50
2022-07-30T16:24:20.274Z,1.48
2022-07-30T16:26:48.091Z,1.40
2022-07-30T16:29:17.766Z,1.27
2022-07-30T16:31:45.590Z,1.17
2022-07-30T16:34:13.414Z,0.88
2022-07-30T16:36:41.411Z,1.15
2022-07-30T16:39:09.232Z,1.30
2022-07-30T16:41:37.430Z,1.20
2022-07-30T16:44:05.864Z,1.27
2022-07-30T16:46:35.101Z,1.17
2022-07-30T16:49:02.918Z,2.28
2022-07-30T16:51:31.049Z,1.50
2022-07-30T16:53:58.974Z,1.25
2022-07-30T16:56:26.868Z,1.40
2022-07-30T16:58:54.782Z,1.38
2022-07-30T17:01:22.651Z,1.65
2022-07-30T17:03:51.751Z,2.97
2022-07-30T17:06:19.635Z,3.20
2022-07-30T17:08:47.709Z,2.08
2022-07-30T17:11:47.337Z,2.40
2022-07-30T17:14:04.998Z,2.45
2022-07-30T17:16:32.917Z,2.70
2022-07-30T17:19:09.665Z,1.98
2022-07-30T17:21:38.881Z,1.50
2022-07-30T17:24:11.776Z,1.67
2022-07-30T17:26:42.743Z,1.20
2022-07-30T17:29:14.238Z,1.88
2022-07-30T17:31:43.884Z,1.73
2022-07-30T17:34:15.928Z,1.90
2022-07-30T17:36:51.546Z,0.98
2022-07-30T17:40:27.684Z,1.63
2022-07-30T17:42:10.113Z,1.70
2022-07-30T17:44:39.147Z,1.48
2022-07-30T17:47:10.980Z,1.55
2022-07-30T17:49:43.197Z,1.52
2022-07-30T17:52:11.293Z,1.85
2022-07-30T17:54:39.163Z,1.83
2022-07-30T17:57:07.044Z,1.50
2022-07-30T17:59:34.853Z,2.70
2022-07-30T18:02:04.247Z,1.98
2022-07-30T18:04:32.368Z,1.55
2022-07-30T18:07:01.594Z,1.45
2022-07-30T18:09:31.113Z,1.33
2022-07-30T18:12:07.847Z,1.23
2022-07-30T18:14:35.754Z,1.63
2022-07-30T18:17:05.066Z,1.42
2022-07-30T18:19:32.874Z,1.48
2022-07-30T18:22:03.051Z,1.30
2022-07-30T18:24:33.458Z,1.45
2022-07-30T18:27:07.976Z,1.45
2022-07-30T18:29:35.918Z,1.38
2022-07-30T18:32:04.009Z,1.50
2022-07-30T18:34:32.217Z,1.25
2022-07-30T18:36:59.989Z,1.48
2022-07-30T18:39:29.342Z,1.83
2022-07-30T18:41:58.071Z,1.60
2022-07-30T18:44:25.878Z,1.40
2022-07-30T18:46:53.652Z,1.40
2022-07-30T18:49:36.265Z,1.23
2022-07-30T18:52:05.788Z,1.23
2022-07-30T18:54:36.090Z,1.33
2022-07-30T18:57:04.260Z,1.30
2022-07-30T18:59:32.294Z,1.20
2022-07-30T19:02:00.362Z,1.52
2022-07-30T19:04:28.613Z,1.40
2022-07-30T19:06:56.432Z,1.50
2022-07-30T19:09:24.592Z,1.95
2022-07-30T19:11:53.949Z,1.70
2022-07-30T19:14:21.727Z,1.50
2022-07-30T19:16:49.812Z,1.05
2022-07-30T19:19:18.836Z,1.30
2022-07-30T19:21:46.680Z,1.27
2022-07-30T19:24:14.424Z,1.00
2022-07-30T19:26:44.083Z,1.50
2022-07-30T19:29:13.228Z,1.33
2022-07-30T19:31:42.180Z,1.50
2022-07-30T19:34:11.683Z,1.30
2022-07-30T19:36:39.755Z,1.55
2022-07-30T19:39:09.375Z,1.60
2022-07-30T19:41:41.256Z,1.00
2022-07-30T19:44:10.447Z,1.23
2022-07-30T19:46:41.457Z,1.45
2022-07-30T19:49:10.854Z,1.75
2022-07-30T19:52:10.929Z,1.90
2022-07-30T19:54:26.870Z,1.52
2022-07-30T19:56:54.631Z,1.58
2022-07-30T19:59:45.350Z,1.70
2022-07-30T20:02:13.740Z,1.48
2022-07-30T20:04:41.588Z,1.30
2022-07-30T20:07:11.753Z,1.35
2022-07-30T20:09:42.844Z,1.20
2022-07-30T20:12:14.351Z,1.55
2022-07-30T20:14:43.617Z,1.65
2022-07-30T20:17:12.989Z,1.67
2022-07-30T20:19:48.498Z,1.60
2022-07-30T20:22:17.119Z,1.30
2022-07-30T20:24:45.445Z,1.45
2022-07-30T20:27:37.216Z,1.20
2022-07-30T20:30:01.838Z,1.42
2022-07-30T20:32:31.288Z,1.20
2022-07-30T20:34:59.488Z,1.65
2022-07-30T20:37:27.855Z,1.20
2022-07-30T20:39:56.155Z,1.30
2022-07-30T20:42:24.261Z,1.88
2022-07-30T20:44:56.634Z,1.95
2022-07-30T20:47:34.298Z,1.63
2022-07-30T20:50:09.999Z,1.75
2022-07-30T20:52:40.011Z,1.60
2022-07-30T20:55:09.740Z,1.65
2022-07-30T20:57:57.141Z,1.45
2022-07-30T21:00:30.054Z,1.20
2022-07-30T21:02:57.870Z,1.58
2022-07-30T21:05:32.765Z,1.55
2022-07-30T21:08:00.704Z,1.60
2022-07-30T21:10:28.839Z,1.60
2022-07-30T21:12:58.518Z,1.38
2022-07-30T21:15:33.059Z,1.42
2022-07-30T21:18:02.045Z,1.33
2022-07-30T21:20:32.822Z,1.27
2022-07-30T21:23:06.267Z,1.30
2022-07-30T21:26:00.524Z,1.50
2022-07-30T21:28:28.165Z,1.20
2022-07-30T21:30:57.421Z,1.30
2022-07-30T21:33:44.105Z,1.13
2022-07-30T21:36:14.913Z,1.10
2022-07-30T21:38:43.295Z,1.70
2022-07-30T21:41:14.074Z,1.52
2022-07-30T21:43:43.450Z,1.33
2022-07-30T21:46:11.845Z,1.50
2022-07-30T21:48:39.858Z,1.58
2022-07-30T21:51:09.316Z,1.60
2022-07-30T21:53:45.304Z,1.30
2022-07-30T21:56:16.143Z,1.45
2022-07-30T21:58:45.342Z,1.40
2022-07-30T22:01:18.046Z,1.40
2022-07-30T22:04:03.275Z,1.20
2022-07-30T22:06:35.876Z,1.20
2022-07-30T22:09:19.876Z,1.52
2022-07-30T22:11:54.920Z,1.23
2022-07-30T22:14:24.795Z,1.25
2022-07-30T22:16:53.909Z,1.33
2022-07-30T22:19:22.374Z,1.52
2022-07-30T22:21:51.023Z,1.33
2022-07-30T22:24:28.909Z,1.60
2022-07-30T22:27:01.194Z,1.30
2022-07-30T22:29:34.142Z,1.13
2022-07-30T22:32:06.211Z,1.25
2022-07-30T22:34:36.263Z,1.58
2022-07-30T22:37:04.137Z,1.23
2022-07-30T22:39:51.116Z,1.27
2022-07-30T22:42:20.805Z,1.17
2022-07-30T22:44:52.173Z,1.85
2022-07-30T22:47:21.637Z,0.88
2022-07-30T22:50:09.342Z,1.02
2022-07-30T22:52:38.825Z,1.38
2022-07-30T22:55:10.412Z,1.40
2022-07-30T22:57:40.154Z,1.40
2022-07-30T23:00:13.079Z,1.00
2022-07-30T23:02:42.982Z,1.52
2022-07-30T23:05:12.642Z,1.50
2022-07-30T23:07:41.500Z,1.40
2022-07-30T23:10:18.184Z,1.17
2022-07-30T23:12:49.217Z,1.27
2022-07-30T23:15:18.601Z,1.30
2022-07-30T23:17:46.830Z,1.52
2022-07-30T23:20:17.503Z,1.27
2022-07-30T23:22:45.411Z,1.27
2022-07-30T23:25:15.926Z,1.55
2022-07-30T23:27:46.501Z,1.50
2022-07-30T23:30:15.837Z,1.70
2022-07-30T23:32:43.667Z,1.13
2022-07-30T23:35:11.975Z,1.70
2022-07-30T23:37:48.918Z,0.85
2022-07-30T23:40:19.377Z,1.20
2022-07-30T23:42:47.919Z,1.40
2022-07-30T23:45:15.759Z,1.35
2022-07-30T23:48:00.549Z,1.27
2022-07-30T23:50:32.282Z,1.23
2022-07-30T23:53:00.794Z,1.52
2022-07-30T23:55:30.868Z,1.40
2022-07-30T23:57:59.938Z,1.60
